Racecast

Dezmynd Lewis

Sacramento Speed Factory (CA) · - · STS · Compare head to head

Athlete rating 123.1 2014 TF season
Best race 159.4 TF
Races 75
Seasons 3 2013 — 2015

RankedNation #2600·CA #203·Team #1 ?

Rating scale ?
Speed rating — all races

Track & Field

TF speed rating

2015 TF

Sacramento Speed Factory (CA) · Grade -

Date Meet Event Result Place Rating Difficulty PR/SR Flags
2015-06-28 USATF Region 14 Junior Olympic Championships 400m 54.82 6th · 1st on team -0.031
2015-06-21 USATF Pacific Association Junior Olympic Championships 400m 56.49 13th · 1st on team -0.031
2015-06-21 USATF Pacific Association Junior Olympic Championships 200m 26.04 21st · 3rd on team -0.031
2015-06-21 USATF Pacific Association Junior Olympic Championships 400m 56.55 14th · 2nd on team -0.031
2015-05-31 PAC (Pacific Association Youth Champions 100m 12.71 16th · 2nd on team -0.024
2015-05-31 PAC (Pacific Association Youth Champions 400m 55.1 3rd · 1st on team -0.024
2015-05-31 PAC (Pacific Association Youth Champions 200m 25.14 17th · 1st on team -0.024 ★PR SR
2015-05-16 3M Track Club Track and Field Invitation 400m 57.66 10th · 2nd on team -0.028
2015-05-16 3M Track Club Track and Field Invitation 100m 12.66 19th · 3rd on team -0.028
2015-05-16 3M Track Club Track and Field Invitation 200m 25.65 9th · 2nd on team -0.028
2015-05-02 Running Rebels/Top Pacers Invitational 200m 25.2 5th · 2nd on team -0.038
2015-05-02 Running Rebels/Top Pacers Invitational 100m 12.41 11th · 4th on team -0.038
2015-05-02 Running Rebels/Top Pacers Invitational 100m 12.17 7th · 3rd on team -0.038 ★PR SR
2015-05-02 Running Rebels/Top Pacers Invitational 400m 56.39 3rd · 1st on team -0.038
2015-04-25 Revolution Express Track Club 200m 25.15 3rd · 2nd on team -0.024 PR SR
2015-04-25 Revolution Express Track Club 400m 55.85 1st · 1st on team -0.024
2015-04-25 Revolution Express Track Club 100m 12.4 4th · 2nd on team -0.024
2015-04-11 Big Valley Track and Field Sectional Mee 100m 12.56 2nd · 2nd on team -0.027
2015-04-11 Big Valley Track Club Invitational 100m 12.56 7th · 2nd on team -0.027
2015-04-11 Big Valley Track and Field Sectional Mee 400m 58.27 2nd · 2nd on team -0.027
2015-04-11 Big Valley Track Club Invitational 400m 58.27 6th · 2nd on team -0.027
2015-04-04 Sacramento Speed Factory 200m 26.17 3rd · 1st on team -0.033 PR SR
2015-04-04 Sacramento Speed Factory 400m 54.71 4th · 2nd on team -0.033 ★PR SR
2015-04-04 Sacramento Speed Factory 100m 12.26 3rd · 2nd on team -0.033 PR SR
2015-03-21 RPM Legacy 400m 58.06 6th · 2nd on team -0.020 PR SR
2015-03-21 RPM Legacy 100m 12.91 10th · 2nd on team -0.020
2015-03-07 RETC/CVRR/SSF/Mt House Practice meet 100m 12.74 2nd · 2nd on team -0.024 PR SR
2015-03-07 RETC/CVRR/SSF/Mt House Practice meet 400m 59.35 2nd · 2nd on team -0.024 PR SR

2014 TF 123.0

Sacramento Speed Factory (CA) · Grade -

Date Meet Event Result Place Rating Difficulty PR/SR Flags
2014-06-20 USATF Pacific Assoc. Junior Olympics (Top 8) 400m 1:06.35 25th · 1st on team -0.031
2014-05-31 Pacific Association Championships (PAC) 400m 59.79 10th · 1st on team -0.024 PR SR
2014-05-31 Pacific Association Championships (PAC) 200m 27.16 29th · 1st on team -0.024 PR SR
2014-05-24 Central Valley Roadrunners 800m 2:28.5 5th · 1st on team 123.2 -0.026 RSR
2014-05-24 Central Valley Roadrunners 400m 1:02.1 7th · 1st on team -0.026
2014-05-24 Central Valley Roadrunners 200m 27.83 17th · 1st on team -0.026
2014-05-18 3M Invitational 200m 28.74 16th · 1st on team -0.028
2014-05-18 3M Invitational 400m 1:01.61 6th · 1st on team -0.028
2014-05-03 Hercules Running Rebels/Top Pacers Inv. 400m 1:02.93 1st · 1st on team -0.038
2014-05-03 Hercules Running Rebels/Top Pacers Inv. 800m 2:27.27 1st · 1st on team 122.8 -0.038 ★PR SR RSR
2014-04-26 Revolution Express TC 200m 27.7 7th · 1st on team -0.024 PR SR
2014-04-26 Revolution Express TC 100m 13.53 7th · 1st on team -0.024
2014-04-26 Revolution Express TC 400m 1:00.76 10th · 1st on team -0.024 PR SR
2014-04-05 Sacramento Speed Showcase 100m 13.27 22nd · 2nd on team -0.033 PR SR
2014-04-05 Sacramento Speed Showcase 400m 1:01.35 15th · 2nd on team -0.033 PR SR
2014-03-22 RPM 400m 1:03.64 17th · 1st on team -0.012 SR
2014-03-22 RPM 100m 13.64 22nd · 2nd on team -0.012 SR

2013 TF 109.0

Sacramento Speed Factory (CA) · Grade -

Date Meet Event Result Place Rating Difficulty PR/SR Flags
2013-07-12 Track City Classic lj 4.45m -0.035
2013-07-12 Track City Classic 400m 1:07.14 17th · 1st on team -0.035
2013-07-06 Region 14 Junior Olympics T&F (2-day) lj 4.26m -0.035
2013-07-06 Region 14 Junior Olympics T&F (2-day) 400m 1:02.14 3rd · 1st on team -0.035 PR SR
2013-07-06 Region 14 Junior Olympics T&F (2-day) 800m 2:36.17 11th · 1st on team 159.4 -0.035 ★R RSR
2013-06-21 Pacific Association Junior Olympics (3-day) lj 4.57m -0.035
2013-06-21 Pacific Association Junior Olympics (3-day) 400m 1:04.37 13th · 2nd on team -0.035
2013-06-21 Pacific Association Junior Olympics (3-day) 400m 1:03.05 8th · 1st on team -0.035 PR SR
2013-06-21 Pacific Association Junior Olympics (3-day) 800m 2:27.63 3rd · 1st on team 101.8 -0.035 PR R SR RSR
2013-06-08 Pacific Association Youth Championship (PAC) - 2-day meet 800m 2:41.72 11th · 1st on team 94.1 -0.024
2013-06-08 Pacific Association Youth Championship (PAC) - 2-day meet 400m 1:04.03 6th · 1st on team -0.024
2013-05-25 Central Valley Roadrunners (2-day meet) lj 14-02.00 -0.026
2013-05-25 Central Valley Roadrunners (2-day meet) 400m 1:03.91 1st · 1st on team -0.026 PR SR
2013-05-25 Central Valley Roadrunners (2-day meet) 800m 2:29.08 2nd · 1st on team 101.5 -0.026 PR R SR RSR
2013-05-04 Hercules / Running Rebels (2-day) lj 4.59m -0.038
2013-05-04 Hercules / Running Rebels (2-day) 400m 1:04.65 6th · 1st on team -0.038
2013-05-04 Hercules / Running Rebels (2-day) 800m 2:31.43 2nd · 1st on team 99.0 -0.038 PR R SR RSR
2013-04-27 Revolution Express Track Club lj 14-08.25 -0.024
2013-04-27 Revolution Express Track Club 800m 2:34.73 7th · 1st on team 98.3 -0.024 PR R SR RSR
2013-04-27 Revolution Express Track Club 400m 1:05.01 4th · 1st on team -0.024
2013-04-20 Shor / Sheppard Classic lj 15-01.25 -0.023
2013-04-20 Shor / Sheppard Classic 100m 13.98 13th · 1st on team -0.023
2013-04-06 Sacramento Speed Showcase lj 14-03.00 -0.031
2013-04-06 Sacramento Speed Showcase 400m 1:04.09 5th · 1st on team -0.031 PR SR
2013-04-06 Sacramento Speed Showcase 100m 14.61 17th · 1st on team -0.031
2013-03-30 Stockton Saints 400m 1:05.37 7th · 1st on team -0.016 PR SR
2013-03-30 Stockton Saints 100m 14.16 13th · 1st on team -0.016
2013-03-09 RETC home practice meet 100m 13.54 5th · 4th on team -0.024 PR SR
2013-03-09 RETC home practice meet 400m 1:06.14 1st · 1st on team -0.024 PR SR
2013-03-09 RETC home practice meet 200m 29.14 1st · 1st on team -0.024 PR SR